Barton Upon Irwell, United Kingdom
Current Conditions -  °F | °C
As of 2:20 AM on Friday 21 Nov 2014 (Local Time) from EGCC Reporting Station
Haze Haze  
Wind Chill:   Ceiling: 3200
Heat Index:   Visibility: 2.1mi
Dew Point:   Wind: 0mph
Humidity: 100%   Direction: NA
Pressure: 30.21"   Gusts: NA
Location:  53.48°N, 2.34°W
Report Text: EGCC 210220Z 00000KT 3500 BR BKN032 04/04 Q1023
Loading
Personal Weather Stations






























Interactive Weather Map New forecast layout! Learn more

10-Day Weather Forecast

Advertisements
Track Severe Weather on mobile